sensor_id;sensor_type;location;lat;lon;timestamp;pressure;altitude;pressure_sealevel;temperature;humidity
36190;BME280;22232;50.914;13.858;2024-02-21T00:02:02;98444.13;;;6.06;100.00
36190;BME280;22232;50.914;13.858;2024-02-21T00:04:29;98443.28;;;6.06;100.00
36190;BME280;22232;50.914;13.858;2024-02-21T00:06:57;98441.25;;;6.08;100.00
36190;BME280;22232;50.914;13.858;2024-02-21T00:09:25;98437.16;;;6.05;100.00
36190;BME280;22232;50.914;13.858;2024-02-21T00:11:52;98437.34;;;6.04;100.00
36190;BME280;22232;50.914;13.858;2024-02-21T00:14:20;98435.09;;;6.01;100.00
36190;BME280;22232;50.914;13.858;2024-02-21T00:16:49;98428.22;;;6.06;100.00
36190;BME280;22232;50.914;13.858;2024-02-21T00:19:16;98426.56;;;6.05;100.00
36190;BME280;22232;50.914;13.858;2024-02-21T00:21:44;98426.19;;;6.08;100.00
36190;BME280;22232;50.914;13.858;2024-02-21T00:24:11;98423.38;;;6.10;100.00
36190;BME280;22232;50.914;13.858;2024-02-21T00:26:39;98417.50;;;6.14;100.00
36190;BME280;22232;50.914;13.858;2024-02-21T00:29:07;98416.88;;;6.12;100.00
36190;BME280;22232;50.914;13.858;2024-02-21T00:31:35;98414.03;;;6.14;100.00
36190;BME280;22232;50.914;13.858;2024-02-21T00:34:03;98404.63;;;6.11;100.00
36190;BME280;22232;50.914;13.858;2024-02-21T00:36:30;98401.81;;;6.13;100.00
36190;BME280;22232;50.914;13.858;2024-02-21T00:38:58;98397.69;;;6.10;100.00
36190;BME280;22232;50.914;13.858;2024-02-21T00:41:26;98398.53;;;6.11;100.00
36190;BME280;22232;50.914;13.858;2024-02-21T00:43:53;98396.69;;;6.11;100.00
36190;BME280;22232;50.914;13.858;2024-02-21T00:46:21;98393.66;;;6.14;100.00
36190;BME280;22232;50.914;13.858;2024-02-21T00:48:48;98384.16;;;6.20;100.00
36190;BME280;22232;50.914;13.858;2024-02-21T00:51:18;98380.25;;;6.16;100.00
36190;BME280;22232;50.914;13.858;2024-02-21T00:57:59;98379.44;;;6.15;100.00
36190;BME280;22232;50.914;13.858;2024-02-21T01:00:27;98370.66;;;6.15;100.00
36190;BME280;22232;50.914;13.858;2024-02-21T01:02:54;98364.53;;;6.14;100.00
36190;BME280;22232;50.914;13.858;2024-02-21T01:05:22;98363.53;;;6.15;100.00
36190;BME280;22232;50.914;13.858;2024-02-21T01:07:50;98364.16;;;6.17;100.00
36190;BME280;22232;50.914;13.858;2024-02-21T01:10:17;98359.69;;;6.18;100.00
36190;BME280;22232;50.914;13.858;2024-02-21T01:12:45;98362.97;;;6.20;100.00
36190;BME280;22232;50.914;13.858;2024-02-21T01:15:12;98356.47;;;6.23;100.00
36190;BME280;22232;50.914;13.858;2024-02-21T01:17:40;98356.47;;;6.23;100.00
36190;BME280;22232;50.914;13.858;2024-02-21T01:20:08;98349.53;;;6.22;100.00
36190;BME280;22232;50.914;13.858;2024-02-21T01:22:36;98341.78;;;6.20;100.00
36190;BME280;22232;50.914;13.858;2024-02-21T01:25:04;98337.88;;;6.16;100.00
36190;BME280;22232;50.914;13.858;2024-02-21T01:27:32;98340.31;;;6.17;100.00
36190;BME280;22232;50.914;13.858;2024-02-21T01:30:00;98334.84;;;6.19;100.00
36190;BME280;22232;50.914;13.858;2024-02-21T01:32:28;98331.31;;;6.12;100.00
36190;BME280;22232;50.914;13.858;2024-02-21T01:34:55;98328.28;;;6.15;100.00
36190;BME280;22232;50.914;13.858;2024-02-21T01:37:23;98327.81;;;6.11;100.00
36190;BME280;22232;50.914;13.858;2024-02-21T01:39:51;98313.78;;;6.11;100.00
36190;BME280;22232;50.914;13.858;2024-02-21T01:42:18;98317.44;;;6.10;100.00
36190;BME280;22232;50.914;13.858;2024-02-21T01:44:46;98304.75;;;6.05;100.00
36190;BME280;22232;50.914;13.858;2024-02-21T01:47:13;98314.34;;;6.06;100.00
36190;BME280;22232;50.914;13.858;2024-02-21T01:49:41;98310.06;;;6.05;100.00
36190;BME280;22232;50.914;13.858;2024-02-21T01:52:10;98294.16;;;6.05;100.00
36190;BME280;22232;50.914;13.858;2024-02-21T01:54:40;98298.22;;;6.01;100.00
36190;BME280;22232;50.914;13.858;2024-02-21T01:57:07;98290.63;;;5.98;100.00
36190;BME280;22232;50.914;13.858;2024-02-21T01:59:35;98289.00;;;5.97;100.00
36190;BME280;22232;50.914;13.858;2024-02-21T02:02:03;98285.72;;;5.95;100.00
36190;BME280;22232;50.914;13.858;2024-02-21T02:04:31;98285.56;;;5.96;100.00
36190;BME280;22232;50.914;13.858;2024-02-21T02:07:02;98285.72;;;5.95;100.00
36190;BME280;22232;50.914;13.858;2024-02-21T02:09:31;98289.53;;;5.92;100.00
36190;BME280;22232;50.914;13.858;2024-02-21T02:11:58;98287.47;;;5.88;100.00
36190;BME280;22232;50.914;13.858;2024-02-21T02:14:26;98280.44;;;5.80;100.00
36190;BME280;22232;50.914;13.858;2024-02-21T02:16:54;98276.19;;;5.79;100.00
36190;BME280;22232;50.914;13.858;2024-02-21T02:19:21;98279.19;;;5.76;100.00
36190;BME280;22232;50.914;13.858;2024-02-21T02:21:58;98274.06;;;5.74;100.00
36190;BME280;22232;50.914;13.858;2024-02-21T02:24:27;98269.16;;;5.71;100.00
36190;BME280;22232;50.914;13.858;2024-02-21T02:26:54;98273.47;;;5.72;100.00
36190;BME280;22232;50.914;13.858;2024-02-21T02:29:22;98281.78;;;5.69;100.00
36190;BME280;22232;50.914;13.858;2024-02-21T02:31:50;98279.00;;;5.78;100.00
36190;BME280;22232;50.914;13.858;2024-02-21T02:34:17;98272.13;;;5.83;100.00
36190;BME280;22232;50.914;13.858;2024-02-21T02:36:45;98266.41;;;5.80;100.00
36190;BME280;22232;50.914;13.858;2024-02-21T02:39:13;98266.19;;;5.81;100.00
36190;BME280;22232;50.914;13.858;2024-02-21T02:41:40;98268.66;;;5.83;100.00
36190;BME280;22232;50.914;13.858;2024-02-21T02:44:08;98257.06;;;5.84;100.00
36190;BME280;22232;50.914;13.858;2024-02-21T02:46:35;98258.34;;;5.88;100.00
36190;BME280;22232;50.914;13.858;2024-02-21T02:49:03;98264.25;;;5.90;100.00
36190;BME280;22232;50.914;13.858;2024-02-21T02:51:31;98248.88;;;5.93;100.00
36190;BME280;22232;50.914;13.858;2024-02-21T02:53:58;98253.78;;;5.96;100.00
36190;BME280;22232;50.914;13.858;2024-02-21T02:56:26;98252.56;;;5.99;100.00
36190;BME280;22232;50.914;13.858;2024-02-21T02:58:53;98246.44;;;5.98;100.00
36190;BME280;22232;50.914;13.858;2024-02-21T03:01:21;98250.75;;;6.00;100.00
36190;BME280;22232;50.914;13.858;2024-02-21T03:03:49;98246.88;;;6.02;100.00
36190;BME280;22232;50.914;13.858;2024-02-21T03:06:16;98242.22;;;6.04;100.00
36190;BME280;22232;50.914;13.858;2024-02-21T03:08:44;98240.38;;;6.05;100.00
36190;BME280;22232;50.914;13.858;2024-02-21T03:11:11;98238.00;;;6.10;100.00
36190;BME280;22232;50.914;13.858;2024-02-21T03:13:39;98242.47;;;6.09;100.00
36190;BME280;22232;50.914;13.858;2024-02-21T03:16:07;98240.00;;;6.08;100.00
36190;BME280;22232;50.914;13.858;2024-02-21T03:18:34;98230.00;;;6.03;100.00
36190;BME280;22232;50.914;13.858;2024-02-21T03:21:02;98227.53;;;6.02;100.00
36190;BME280;22232;50.914;13.858;2024-02-21T03:23:30;98222.81;;;5.97;100.00
36190;BME280;22232;50.914;13.858;2024-02-21T03:25:57;98218.13;;;5.99;100.00
36190;BME280;22232;50.914;13.858;2024-02-21T03:28:25;98221.41;;;6.01;100.00
36190;BME280;22232;50.914;13.858;2024-02-21T03:30:52;98222.22;;;6.02;100.00
36190;BME280;22232;50.914;13.858;2024-02-21T03:33:20;98217.75;;;6.02;100.00
36190;BME280;22232;50.914;13.858;2024-02-21T03:35:50;98225.91;;;6.01;100.00
36190;BME280;22232;50.914;13.858;2024-02-21T03:38:19;98222.81;;;5.97;100.00
36190;BME280;22232;50.914;13.858;2024-02-21T03:40:46;98224.81;;;5.95;100.00
36190;BME280;22232;50.914;13.858;2024-02-21T03:43:14;98223.63;;;5.97;100.00
36190;BME280;22232;50.914;13.858;2024-02-21T03:45:41;98227.09;;;5.98;100.00
36190;BME280;22232;50.914;13.858;2024-02-21T03:48:09;98231.38;;;5.99;100.00
36190;BME280;22232;50.914;13.858;2024-02-21T03:50:36;98228.56;;;6.01;100.00
36190;BME280;22232;50.914;13.858;2024-02-21T03:53:04;98223.50;;;6.06;100.00
36190;BME280;22232;50.914;13.858;2024-02-21T03:55:31;98221.69;;;6.06;100.00
36190;BME280;22232;50.914;13.858;2024-02-21T03:57:59;98221.69;;;6.06;100.00
36190;BME280;22232;50.914;13.858;2024-02-21T04:00:27;98216.16;;;6.08;100.00
36190;BME280;22232;50.914;13.858;2024-02-21T04:02:54;98216.16;;;6.08;100.00
36190;BME280;22232;50.914;13.858;2024-02-21T04:05:23;98216.97;;;6.08;100.00
36190;BME280;22232;50.914;13.858;2024-02-21T04:07:50;98216.00;;;6.09;100.00
36190;BME280;22232;50.914;13.858;2024-02-21T04:10:19;98216.03;;;6.16;100.00
36190;BME280;22232;50.914;13.858;2024-02-21T04:12:47;98205.03;;;6.12;100.00
36190;BME280;22232;50.914;13.858;2024-02-21T04:15:17;98213.13;;;6.11;100.00
36190;BME280;22232;50.914;13.858;2024-02-21T04:17:45;98217.06;;;6.15;100.00
36190;BME280;22232;50.914;13.858;2024-02-21T04:20:16;98210.09;;;6.14;100.00
36190;BME280;22232;50.914;13.858;2024-02-21T04:22:44;98208.66;;;6.11;100.00
36190;BME280;22232;50.914;13.858;2024-02-21T04:25:12;98200.53;;;6.13;100.00
36190;BME280;22232;50.914;13.858;2024-02-21T04:27:40;98199.72;;;6.12;100.00
36190;BME280;22232;50.914;13.858;2024-02-21T04:30:09;98201.34;;;6.13;100.00
36190;BME280;22232;50.914;13.858;2024-02-21T04:32:36;98207.66;;;6.12;100.00
36190;BME280;22232;50.914;13.858;2024-02-21T04:35:04;98201.34;;;6.13;100.00
36190;BME280;22232;50.914;13.858;2024-02-21T04:37:32;98201.34;;;6.13;100.00
36190;BME280;22232;50.914;13.858;2024-02-21T04:40:00;98204.63;;;6.15;100.00
36190;BME280;22232;50.914;13.858;2024-02-21T04:42:28;98208.28;;;6.14;100.00
36190;BME280;22232;50.914;13.858;2024-02-21T04:44:55;98199.50;;;6.14;100.00
36190;BME280;22232;50.914;13.858;2024-02-21T04:47:23;98196.06;;;6.13;100.00
36190;BME280;22232;50.914;13.858;2024-02-21T04:49:54;98193.44;;;6.20;100.00
36190;BME280;22232;50.914;13.858;2024-02-21T04:52:21;98191.19;;;6.17;100.00
36190;BME280;22232;50.914;13.858;2024-02-21T04:54:49;98188.50;;;6.10;100.00
36190;BME280;22232;50.914;13.858;2024-02-21T04:57:17;98185.66;;;6.12;100.00
36190;BME280;22232;50.914;13.858;2024-02-21T04:59:44;98182.38;;;6.10;100.00
36190;BME280;22232;50.914;13.858;2024-02-21T05:02:13;98174.06;;;6.13;100.00
36190;BME280;22232;50.914;13.858;2024-02-21T05:04:45;98184.25;;;6.16;100.00
36190;BME280;22232;50.914;13.858;2024-02-21T05:07:13;98179.72;;;6.10;100.00
36190;BME280;22232;50.914;13.858;2024-02-21T05:09:42;98174.81;;;6.07;100.00
36190;BME280;22232;50.914;13.858;2024-02-21T05:12:09;98176.66;;;6.06;100.00
36190;BME280;22232;50.914;13.858;2024-02-21T05:14:37;98173.59;;;6.03;100.00
36190;BME280;22232;50.914;13.858;2024-02-21T05:17:04;98183.31;;;6.02;100.00
36190;BME280;22232;50.914;13.858;2024-02-21T05:19:32;98166.19;;;5.98;100.00
36190;BME280;22232;50.914;13.858;2024-02-21T05:22:00;98166.41;;;5.96;100.00
36190;BME280;22232;50.914;13.858;2024-02-21T05:24:27;98171.75;;;6.03;100.00
36190;BME280;22232;50.914;13.858;2024-02-21T05:26:56;98166.06;;;6.06;100.00
36190;BME280;22232;50.914;13.858;2024-02-21T05:29:24;98168.09;;;6.04;100.00
36190;BME280;22232;50.914;13.858;2024-02-21T05:34:21;98170.56;;;6.06;100.00
36190;BME280;22232;50.914;13.858;2024-02-21T05:36:49;98168.75;;;6.13;100.00
36190;BME280;22232;50.914;13.858;2024-02-21T05:39:20;98163.25;;;6.14;100.00
36190;BME280;22232;50.914;13.858;2024-02-21T05:41:50;98165.91;;;6.14;100.00
36190;BME280;22232;50.914;13.858;2024-02-21T05:44:18;98160.59;;;6.14;100.00
36190;BME280;22232;50.914;13.858;2024-02-21T05:46:46;98161.00;;;6.11;100.00
36190;BME280;22232;50.914;13.858;2024-02-21T05:49:14;98158.59;;;6.16;100.00
36190;BME280;22232;50.914;13.858;2024-02-21T05:51:42;98160.84;;;6.19;100.00
36190;BME280;22232;50.914;13.858;2024-02-21T05:54:09;98154.53;;;6.20;100.00
36190;BME280;22232;50.914;13.858;2024-02-21T05:56:37;98153.28;;;6.16;100.00
36190;BME280;22232;50.914;13.858;2024-02-21T05:59:04;98152.66;;;6.14;100.00
36190;BME280;22232;50.914;13.858;2024-02-21T06:01:32;98154.50;;;6.14;100.00
36190;BME280;22232;50.914;13.858;2024-02-21T06:04:00;98146.97;;;6.17;100.00
36190;BME280;22232;50.914;13.858;2024-02-21T06:06:27;98145.97;;;6.18;100.00
36190;BME280;22232;50.914;13.858;2024-02-21T06:08:55;98149.03;;;6.15;100.00
36190;BME280;22232;50.914;13.858;2024-02-21T06:11:23;98145.09;;;6.11;100.00
36190;BME280;22232;50.914;13.858;2024-02-21T06:13:51;98139.19;;;6.09;100.00
36190;BME280;22232;50.914;13.858;2024-02-21T06:16:18;98141.47;;;6.12;100.00
36190;BME280;22232;50.914;13.858;2024-02-21T06:18:46;98136.16;;;6.12;100.00
36190;BME280;22232;50.914;13.858;2024-02-21T06:21:13;98133.13;;;6.15;100.00
36190;BME280;22232;50.914;13.858;2024-02-21T06:23:41;98140.25;;;6.15;100.00
36190;BME280;22232;50.914;13.858;2024-02-21T06:26:08;98130.47;;;6.15;100.00
36190;BME280;22232;50.914;13.858;2024-02-21T06:28:36;98130.47;;;6.15;100.00
36190;BME280;22232;50.914;13.858;2024-02-21T06:31:03;98121.72;;;6.15;100.00
36190;BME280;22232;50.914;13.858;2024-02-21T06:33:31;98118.28;;;6.21;100.00
36190;BME280;22232;50.914;13.858;2024-02-21T06:35:59;98124.00;;;6.25;100.00
36190;BME280;22232;50.914;13.858;2024-02-21T06:38:26;98118.72;;;6.25;100.00
36190;BME280;22232;50.914;13.858;2024-02-21T06:40:54;98114.88;;;6.27;100.00
36190;BME280;22232;50.914;13.858;2024-02-21T06:43:22;98110.00;;;6.37;100.00
36190;BME280;22232;50.914;13.858;2024-02-21T06:45:49;98107.56;;;6.36;100.00
36190;BME280;22232;50.914;13.858;2024-02-21T06:48:21;98102.06;;;6.37;100.00
36190;BME280;22232;50.914;13.858;2024-02-21T06:50:49;98095.56;;;6.40;100.00
36190;BME280;22232;50.914;13.858;2024-02-21T06:53:16;98105.59;;;6.51;100.00
36190;BME280;22232;50.914;13.858;2024-02-21T06:55:44;98102.94;;;6.51;100.00
36190;BME280;22232;50.914;13.858;2024-02-21T07:02:25;98101.31;;;6.57;100.00
36190;BME280;22232;50.914;13.858;2024-02-21T07:04:52;98105.84;;;6.63;100.00
36190;BME280;22232;50.914;13.858;2024-02-21T07:07:20;98112.38;;;6.60;100.00
36190;BME280;22232;50.914;13.858;2024-02-21T07:09:48;98111.13;;;6.63;100.00
36190;BME280;22232;50.914;13.858;2024-02-21T07:12:16;98114.41;;;6.65;100.00
36190;BME280;22232;50.914;13.858;2024-02-21T07:14:44;98113.44;;;6.73;100.00
36190;BME280;22232;50.914;13.858;2024-02-21T07:17:12;98115.25;;;6.72;100.00
36190;BME280;22232;50.914;13.858;2024-02-21T07:19:39;98115.06;;;6.74;100.00
36190;BME280;22232;50.914;13.858;2024-02-21T07:22:07;98110.59;;;6.74;100.00
36190;BME280;22232;50.914;13.858;2024-02-21T07:24:35;98105.91;;;6.76;100.00
36190;BME280;22232;50.914;13.858;2024-02-21T07:27:02;98104.31;;;6.88;100.00
36190;BME280;22232;50.914;13.858;2024-02-21T07:29:32;98110.44;;;6.89;100.00
36190;BME280;22232;50.914;13.858;2024-02-21T07:31:59;98102.47;;;6.89;100.00
36190;BME280;22232;50.914;13.858;2024-02-21T07:34:27;98108.81;;;6.95;100.00
36190;BME280;22232;50.914;13.858;2024-02-21T07:36:55;98111.66;;;7.00;100.00
36190;BME280;22232;50.914;13.858;2024-02-21T07:39:23;98114.75;;;7.03;100.00
36190;BME280;22232;50.914;13.858;2024-02-21T07:41:50;98116.78;;;7.01;100.00
36190;BME280;22232;50.914;13.858;2024-02-21T07:44:18;98117.41;;;7.03;100.00
36190;BME280;22232;50.914;13.858;2024-02-21T07:46:47;98126.38;;;7.09;100.00
36190;BME280;22232;50.914;13.858;2024-02-21T07:49:14;98123.13;;;7.13;100.00
36190;BME280;22232;50.914;13.858;2024-02-21T07:51:42;98115.59;;;7.24;100.00
36190;BME280;22232;50.914;13.858;2024-02-21T07:54:10;98114.59;;;7.38;100.00
36190;BME280;22232;50.914;13.858;2024-02-21T07:56:42;98108.31;;;7.59;100.00
36190;BME280;22232;50.914;13.858;2024-02-21T07:59:10;98104.00;;;7.98;100.00
36190;BME280;22232;50.914;13.858;2024-02-21T08:01:38;98108.81;;;8.34;100.00
36190;BME280;22232;50.914;13.858;2024-02-21T08:04:05;98096.84;;;8.70;100.00
36190;BME280;22232;50.914;13.858;2024-02-21T08:06:33;98098.19;;;8.92;100.00
36190;BME280;22232;50.914;13.858;2024-02-21T08:09:01;98092.59;;;9.01;100.00
36190;BME280;22232;50.914;13.858;2024-02-21T08:11:28;98088.56;;;8.98;100.00
36190;BME280;22232;50.914;13.858;2024-02-21T08:13:56;98088.56;;;8.91;100.00
36190;BME280;22232;50.914;13.858;2024-02-21T08:16:26;98083.09;;;8.86;100.00
36190;BME280;22232;50.914;13.858;2024-02-21T08:18:54;98079.38;;;8.87;99.52
36190;BME280;22232;50.914;13.858;2024-02-21T08:21:21;98074.59;;;9.03;100.00
36190;BME280;22232;50.914;13.858;2024-02-21T08:23:49;98069.59;;;9.13;97.79
36190;BME280;22232;50.914;13.858;2024-02-21T08:26:19;98067.03;;;9.31;94.62
36190;BME280;22232;50.914;13.858;2024-02-21T08:28:46;98070.78;;;9.99;93.04
36190;BME280;22232;50.914;13.858;2024-02-21T08:31:20;98082.50;;;10.71;90.87
36190;BME280;22232;50.914;13.858;2024-02-21T08:33:48;98094.44;;;10.69;86.02
36190;BME280;22232;50.914;13.858;2024-02-21T08:36:19;98103.03;;;10.34;84.48
36190;BME280;22232;50.914;13.858;2024-02-21T08:38:47;98112.19;;;9.95;87.95
36190;BME280;22232;50.914;13.858;2024-02-21T08:41:14;98113.00;;;9.70;89.18
36190;BME280;22232;50.914;13.858;2024-02-21T08:43:42;98105.84;;;9.71;91.18
36190;BME280;22232;50.914;13.858;2024-02-21T08:46:09;98093.81;;;9.61;91.42
36190;BME280;22232;50.914;13.858;2024-02-21T08:48:37;98079.00;;;9.72;92.75
36190;BME280;22232;50.914;13.858;2024-02-21T08:51:04;98083.47;;;10.40;95.42
36190;BME280;22232;50.914;13.858;2024-02-21T08:53:32;98082.03;;;11.05;88.85
36190;BME280;22232;50.914;13.858;2024-02-21T08:56:00;98084.69;;;11.23;83.98
36190;BME280;22232;50.914;13.858;2024-02-21T08:58:28;98083.59;;;11.12;82.21
36190;BME280;22232;50.914;13.858;2024-02-21T09:00:56;98072.56;;;11.09;82.81
36190;BME280;22232;50.914;13.858;2024-02-21T09:03:24;98075.63;;;10.94;83.20
36190;BME280;22232;50.914;13.858;2024-02-21T09:05:52;98063.22;;;10.69;82.85
36190;BME280;22232;50.914;13.858;2024-02-21T09:08:20;98054.03;;;10.10;81.98
36190;BME280;22232;50.914;13.858;2024-02-21T09:10:48;98066.09;;;9.94;84.47
36190;BME280;22232;50.914;13.858;2024-02-21T09:13:16;98069.59;;;9.70;87.99
36190;BME280;22232;50.914;13.858;2024-02-21T09:15:43;98067.97;;;9.44;91.41
36190;BME280;22232;50.914;13.858;2024-02-21T09:18:11;98070.94;;;9.29;92.24
36190;BME280;22232;50.914;13.858;2024-02-21T09:20:39;98077.69;;;9.31;93.14
36190;BME280;22232;50.914;13.858;2024-02-21T09:23:06;98078.13;;;9.28;95.94
36190;BME280;22232;50.914;13.858;2024-02-21T09:25:34;98083.59;;;9.33;95.28
36190;BME280;22232;50.914;13.858;2024-02-21T09:28:02;98079.13;;;9.27;95.68
36190;BME280;22232;50.914;13.858;2024-02-21T09:30:30;98073.19;;;9.32;96.99
36190;BME280;22232;50.914;13.858;2024-02-21T09:32:57;98072.91;;;9.08;98.05
36190;BME280;22232;50.914;13.858;2024-02-21T09:35:27;98080.03;;;9.14;99.15
36190;BME280;22232;50.914;13.858;2024-02-21T09:37:55;98083.41;;;9.35;98.13
36190;BME280;22232;50.914;13.858;2024-02-21T09:40:22;98089.03;;;9.20;96.42
36190;BME280;22232;50.914;13.858;2024-02-21T09:42:58;98091.72;;;9.13;98.50
36190;BME280;22232;50.914;13.858;2024-02-21T09:45:30;98088.22;;;9.13;99.06
36190;BME280;22232;50.914;13.858;2024-02-21T09:51:02;98093.16;;;9.16;100.00
36190;BME280;22232;50.914;13.858;2024-02-21T09:53:30;98086.78;;;9.17;99.76
36190;BME280;22232;50.914;13.858;2024-02-21T09:55:59;98098.19;;;9.24;100.00
36190;BME280;22232;50.914;13.858;2024-02-21T09:58:27;98079.44;;;9.12;100.00
36190;BME280;22232;50.914;13.858;2024-02-21T10:00:55;98083.09;;;8.86;99.21
36190;BME280;22232;50.914;13.858;2024-02-21T10:03:24;98083.91;;;8.87;99.73
36190;BME280;22232;50.914;13.858;2024-02-21T10:05:52;98088.44;;;8.80;99.22
36190;BME280;22232;50.914;13.858;2024-02-21T10:08:20;98086.22;;;8.77;100.00
36190;BME280;22232;50.914;13.858;2024-02-21T10:10:47;98082.53;;;8.71;100.00
36190;BME280;22232;50.914;13.858;2024-02-21T10:13:25;98087.63;;;8.72;100.00
36190;BME280;22232;50.914;13.858;2024-02-21T10:16:04;98077.66;;;8.68;100.00
36190;BME280;22232;50.914;13.858;2024-02-21T10:18:33;98080.56;;;8.53;100.00
36190;BME280;22232;50.914;13.858;2024-02-21T10:23:29;98079.06;;;8.64;100.00
36190;BME280;22232;50.914;13.858;2024-02-21T10:26:07;98072.78;;;8.58;99.89
36190;BME280;22232;50.914;13.858;2024-02-21T10:28:35;98073.09;;;8.75;100.00
36190;BME280;22232;50.914;13.858;2024-02-21T10:31:04;98072.16;;;8.94;100.00
36190;BME280;22232;50.914;13.858;2024-02-21T10:33:31;98064.66;;;8.85;98.30
36190;BME280;22232;50.914;13.858;2024-02-21T10:36:07;98067.09;;;8.93;99.33
36190;BME280;22232;50.914;13.858;2024-02-21T10:38:38;98069.34;;;8.89;99.06
36190;BME280;22232;50.914;13.858;2024-02-21T10:41:06;98063.38;;;8.94;100.00
36190;BME280;22232;50.914;13.858;2024-02-21T10:43:40;98075.44;;;8.96;100.00
36190;BME280;22232;50.914;13.858;2024-02-21T10:46:08;98069.81;;;8.80;100.00
36190;BME280;22232;50.914;13.858;2024-02-21T10:48:45;98064.34;;;8.68;100.00
36190;BME280;22232;50.914;13.858;2024-02-21T10:54:01;98054.75;;;8.60;100.00
36190;BME280;22232;50.914;13.858;2024-02-21T10:56:31;98047.44;;;8.56;100.00
36190;BME280;22232;50.914;13.858;2024-02-21T10:59:04;98040.22;;;8.63;100.00
36190;BME280;22232;50.914;13.858;2024-02-21T11:01:32;98045.16;;;8.59;100.00
36190;BME280;22232;50.914;13.858;2024-02-21T11:04:05;98044.88;;;8.74;100.00
36190;BME280;22232;50.914;13.858;2024-02-21T11:06:38;98041.84;;;8.70;100.00
36190;BME280;22232;50.914;13.858;2024-02-21T11:09:09;98046.56;;;8.68;100.00
36190;BME280;22232;50.914;13.858;2024-02-21T11:11:42;98041.28;;;8.62;100.00
36190;BME280;22232;50.914;13.858;2024-02-21T11:14:17;98040.72;;;8.46;100.00
36190;BME280;22232;50.914;13.858;2024-02-21T11:16:46;98037.66;;;8.49;100.00
36190;BME280;22232;50.914;13.858;2024-02-21T11:21:47;98038.03;;;8.53;100.00
36190;BME280;22232;50.914;13.858;2024-02-21T11:24:35;98030.63;;;8.62;100.00
36190;BME280;22232;50.914;13.858;2024-02-21T11:27:23;98023.50;;;8.56;100.00
36190;BME280;22232;50.914;13.858;2024-02-21T11:29:58;98020.66;;;8.50;100.00
36190;BME280;22232;50.914;13.858;2024-02-21T11:32:26;98019.06;;;8.36;100.00
36190;BME280;22232;50.914;13.858;2024-02-21T11:34:58;98006.53;;;8.57;100.00
36190;BME280;22232;50.914;13.858;2024-02-21T11:37:36;97999.84;;;8.79;100.00
36190;BME280;22232;50.914;13.858;2024-02-21T11:40:07;97987.88;;;8.95;100.00
36190;BME280;22232;50.914;13.858;2024-02-21T11:42:39;97991.41;;;9.14;100.00
36190;BME280;22232;50.914;13.858;2024-02-21T11:45:07;97982.78;;;9.18;100.00
36190;BME280;22232;50.914;13.858;2024-02-21T11:47:36;97981.19;;;9.36;100.00
36190;BME280;22232;50.914;13.858;2024-02-21T11:50:10;97984.97;;;9.28;100.00
36190;BME280;22232;50.914;13.858;2024-02-21T11:52:39;97975.63;;;9.44;100.00
36190;BME280;22232;50.914;13.858;2024-02-21T11:55:07;97970.22;;;9.51;100.00
36190;BME280;22232;50.914;13.858;2024-02-21T11:57:39;97966.69;;;9.57;98.90
36190;BME280;22232;50.914;13.858;2024-02-21T12:00:13;97953.91;;;9.84;98.97
36190;BME280;22232;50.914;13.858;2024-02-21T12:02:42;97946.22;;;10.43;99.62
36190;BME280;22232;50.914;13.858;2024-02-21T12:05:11;97939.47;;;10.70;92.01
36190;BME280;22232;50.914;13.858;2024-02-21T12:07:39;97932.94;;;10.96;88.47
36190;BME280;22232;50.914;13.858;2024-02-21T12:10:11;97927.59;;;11.08;87.05
36190;BME280;22232;50.914;13.858;2024-02-21T12:12:39;97927.69;;;10.90;83.79
36190;BME280;22232;50.914;13.858;2024-02-21T12:15:07;97922.69;;;10.82;85.12
36190;BME280;22232;50.914;13.858;2024-02-21T12:17:36;97914.13;;;11.03;86.07
36190;BME280;22232;50.914;13.858;2024-02-21T12:20:05;97908.69;;;11.10;83.85
36190;BME280;22232;50.914;13.858;2024-02-21T12:22:33;97902.28;;;11.22;83.12
36190;BME280;22232;50.914;13.858;2024-02-21T12:25:04;97899.72;;;11.04;83.19
36190;BME280;22232;50.914;13.858;2024-02-21T12:27:43;97895.66;;;11.13;82.67
36190;BME280;22232;50.914;13.858;2024-02-21T12:30:11;97896.25;;;10.92;81.87
36190;BME280;22232;50.914;13.858;2024-02-21T12:32:38;97887.75;;;10.83;84.06
36190;BME280;22232;50.914;13.858;2024-02-21T12:35:06;97872.78;;;10.70;84.23
36190;BME280;22232;50.914;13.858;2024-02-21T12:37:34;97873.75;;;10.88;86.05
36190;BME280;22232;50.914;13.858;2024-02-21T12:40:06;97863.53;;;11.08;84.01
36190;BME280;22232;50.914;13.858;2024-02-21T12:42:34;97859.81;;;11.21;82.56
36190;BME280;22232;50.914;13.858;2024-02-21T12:45:02;97855.63;;;11.25;80.45
36190;BME280;22232;50.914;13.858;2024-02-21T12:47:31;97840.41;;;11.37;80.66
36190;BME280;22232;50.914;13.858;2024-02-21T12:49:58;97835.53;;;11.34;80.60
36190;BME280;22232;50.914;13.858;2024-02-21T12:52:26;97833.66;;;11.35;79.61
36190;BME280;22232;50.914;13.858;2024-02-21T12:54:54;97829.84;;;11.42;80.00
36190;BME280;22232;50.914;13.858;2024-02-21T12:57:24;97833.78;;;11.40;77.65
36190;BME280;22232;50.914;13.858;2024-02-21T12:59:54;97835.66;;;11.28;80.07
36190;BME280;22232;50.914;13.858;2024-02-21T13:02:22;97829.41;;;11.22;78.51
36190;BME280;22232;50.914;13.858;2024-02-21T13:04:50;97818.84;;;11.15;78.29
36190;BME280;22232;50.914;13.858;2024-02-21T13:07:17;97815.03;;;10.76;78.23
36190;BME280;22232;50.914;13.858;2024-02-21T13:09:45;97817.25;;;10.91;81.79
36190;BME280;22232;50.914;13.858;2024-02-21T13:12:12;97814.09;;;11.06;81.38
36190;BME280;22232;50.914;13.858;2024-02-21T13:14:40;97802.00;;;11.27;80.28
36190;BME280;22232;50.914;13.858;2024-02-21T13:17:11;97802.53;;;11.52;79.71
36190;BME280;22232;50.914;13.858;2024-02-21T13:19:39;97793.19;;;11.66;77.60